sensor_id;sensor_type;location;lat;lon;timestamp;pressure;altitude;pressure_sealevel;temperature;humidity
57791;BME280;43621;51.798;21.588;2024-02-14T00:04:03;100350.34;;;6.34;63.41
57791;BME280;43621;51.798;21.588;2024-02-14T00:08:05;100357.50;;;6.33;63.51
57791;BME280;43621;51.798;21.588;2024-02-14T00:12:08;100360.86;;;6.32;63.47
57791;BME280;43621;51.798;21.588;2024-02-14T00:16:11;100365.16;;;6.27;63.45
57791;BME280;43621;51.798;21.588;2024-02-14T00:20:13;100363.05;;;6.23;63.45
57791;BME280;43621;51.798;21.588;2024-02-14T00:24:15;100363.94;;;6.23;63.51
57791;BME280;43621;51.798;21.588;2024-02-14T00:28:17;100366.25;;;6.24;63.49
57791;BME280;43621;51.798;21.588;2024-02-14T00:32:19;100367.19;;;6.26;63.57
57791;BME280;43621;51.798;21.588;2024-02-14T00:36:20;100367.56;;;6.25;63.61
57791;BME280;43621;51.798;21.588;2024-02-14T00:40:22;100368.36;;;6.21;63.68
57791;BME280;43621;51.798;21.588;2024-02-14T00:44:23;100369.33;;;6.20;63.84
57791;BME280;43621;51.798;21.588;2024-02-14T00:48:25;100373.21;;;6.19;63.96
57791;BME280;43621;51.798;21.588;2024-02-14T00:52:27;100373.32;;;6.17;63.90
57791;BME280;43621;51.798;21.588;2024-02-14T00:56:28;100374.30;;;6.16;63.95
57791;BME280;43621;51.798;21.588;2024-02-14T01:00:30;100372.84;;;6.17;63.98
57791;BME280;43621;51.798;21.588;2024-02-14T01:04:33;100373.05;;;6.19;63.94
57791;BME280;43621;51.798;21.588;2024-02-14T01:08:37;100378.05;;;6.24;64.06
57791;BME280;43621;51.798;21.588;2024-02-14T01:12:39;100382.16;;;6.27;64.09
57791;BME280;43621;51.798;21.588;2024-02-14T01:16:45;100388.42;;;6.24;64.07
57791;BME280;43621;51.798;21.588;2024-02-14T01:20:46;100392.73;;;6.20;64.17
57791;BME280;43621;51.798;21.588;2024-02-14T01:24:48;100390.86;;;6.17;64.23
57791;BME280;43621;51.798;21.588;2024-02-14T01:28:49;100390.82;;;6.12;64.26
57791;BME280;43621;51.798;21.588;2024-02-14T01:32:51;100392.20;;;6.09;64.26
57791;BME280;43621;51.798;21.588;2024-02-14T01:36:54;100392.65;;;6.13;64.39
57791;BME280;43621;51.798;21.588;2024-02-14T01:40:56;100385.73;;;6.18;64.38
57791;BME280;43621;51.798;21.588;2024-02-14T01:44:57;100389.17;;;6.21;64.51
57791;BME280;43621;51.798;21.588;2024-02-14T01:48:59;100392.52;;;6.20;64.50
57791;BME280;43621;51.798;21.588;2024-02-14T01:53:01;100399.82;;;6.18;64.52
57791;BME280;43621;51.798;21.588;2024-02-14T01:57:05;100397.20;;;6.15;64.69
57791;BME280;43621;51.798;21.588;2024-02-14T02:01:07;100400.37;;;6.12;64.63
57791;BME280;43621;51.798;21.588;2024-02-14T02:05:08;100400.48;;;6.09;64.73
57791;BME280;43621;51.798;21.588;2024-02-14T02:09:10;100402.52;;;6.11;64.76
57791;BME280;43621;51.798;21.588;2024-02-14T02:13:12;100402.29;;;6.14;64.92
57791;BME280;43621;51.798;21.588;2024-02-14T02:17:16;100404.54;;;6.20;65.07
57791;BME280;43621;51.798;21.588;2024-02-14T02:21:19;100407.98;;;6.17;64.95
57791;BME280;43621;51.798;21.588;2024-02-14T02:25:24;100411.80;;;6.15;65.06
57791;BME280;43621;51.798;21.588;2024-02-14T02:29:26;100419.40;;;6.12;65.15
57791;BME280;43621;51.798;21.588;2024-02-14T02:33:27;100416.45;;;6.12;65.21
57791;BME280;43621;51.798;21.588;2024-02-14T02:37:29;100418.34;;;6.13;65.12
57791;BME280;43621;51.798;21.588;2024-02-14T02:41:31;100424.77;;;6.15;65.25
57791;BME280;43621;51.798;21.588;2024-02-14T02:45:35;100429.61;;;6.18;65.35
57791;BME280;43621;51.798;21.588;2024-02-14T02:49:37;100432.94;;;6.17;65.12
57791;BME280;43621;51.798;21.588;2024-02-14T02:53:38;100437.16;;;6.11;65.24
57791;BME280;43621;51.798;21.588;2024-02-14T02:57:41;100441.00;;;6.05;65.26
57791;BME280;43621;51.798;21.588;2024-02-14T03:01:42;100438.38;;;6.03;65.30
57791;BME280;43621;51.798;21.588;2024-02-14T03:05:45;100433.93;;;6.02;65.31
57791;BME280;43621;51.798;21.588;2024-02-14T03:09:47;100434.67;;;6.04;65.44
57791;BME280;43621;51.798;21.588;2024-02-14T03:13:49;100435.30;;;6.05;65.54
57791;BME280;43621;51.798;21.588;2024-02-14T03:17:51;100439.17;;;6.07;65.65
57791;BME280;43621;51.798;21.588;2024-02-14T03:21:53;100438.73;;;6.05;65.63
57791;BME280;43621;51.798;21.588;2024-02-14T03:25:55;100445.98;;;6.00;65.51
57791;BME280;43621;51.798;21.588;2024-02-14T03:29:56;100453.39;;;5.96;65.43
57791;BME280;43621;51.798;21.588;2024-02-14T03:33:59;100458.78;;;5.93;65.53
57791;BME280;43621;51.798;21.588;2024-02-14T03:38:01;100463.50;;;5.92;65.56
57791;BME280;43621;51.798;21.588;2024-02-14T03:42:03;100462.06;;;5.87;65.67
57791;BME280;43621;51.798;21.588;2024-02-14T03:46:08;100463.69;;;5.84;65.77
57791;BME280;43621;51.798;21.588;2024-02-14T03:50:10;100468.89;;;5.84;65.95
57791;BME280;43621;51.798;21.588;2024-02-14T03:54:12;100470.47;;;5.86;66.08
57791;BME280;43621;51.798;21.588;2024-02-14T03:58:13;100472.20;;;5.89;66.09
57791;BME280;43621;51.798;21.588;2024-02-14T04:02:16;100474.84;;;5.88;65.90
57791;BME280;43621;51.798;21.588;2024-02-14T04:06:18;100477.23;;;5.86;66.00
57791;BME280;43621;51.798;21.588;2024-02-14T04:10:20;100481.17;;;5.84;65.95
57791;BME280;43621;51.798;21.588;2024-02-14T04:14:21;100480.10;;;5.82;66.10
57791;BME280;43621;51.798;21.588;2024-02-14T04:18:23;100478.85;;;5.82;66.31
57791;BME280;43621;51.798;21.588;2024-02-14T04:22:24;100483.10;;;5.84;66.37
57791;BME280;43621;51.798;21.588;2024-02-14T04:26:26;100492.05;;;5.85;66.40
57791;BME280;43621;51.798;21.588;2024-02-14T04:30:28;100492.14;;;5.89;66.39
57791;BME280;43621;51.798;21.588;2024-02-14T04:34:30;100494.59;;;5.94;66.36
57791;BME280;43621;51.798;21.588;2024-02-14T04:38:31;100490.76;;;5.97;66.40
57791;BME280;43621;51.798;21.588;2024-02-14T04:42:33;100497.83;;;5.92;66.27
57791;BME280;43621;51.798;21.588;2024-02-14T04:46:35;100503.40;;;5.89;66.38
57791;BME280;43621;51.798;21.588;2024-02-14T04:50:37;100502.91;;;5.85;66.45
57791;BME280;43621;51.798;21.588;2024-02-14T04:54:38;100505.08;;;5.84;66.29
57791;BME280;43621;51.798;21.588;2024-02-14T04:58:40;100499.55;;;5.81;66.42
57791;BME280;43621;51.798;21.588;2024-02-14T05:02:41;100498.42;;;5.88;66.69
57791;BME280;43621;51.798;21.588;2024-02-14T05:06:43;100503.56;;;5.89;66.62
57791;BME280;43621;51.798;21.588;2024-02-14T05:10:44;100505.64;;;5.89;66.69
57791;BME280;43621;51.798;21.588;2024-02-14T05:14:46;100510.05;;;5.85;66.61
57791;BME280;43621;51.798;21.588;2024-02-14T05:18:50;100515.05;;;5.79;66.42
57791;BME280;43621;51.798;21.588;2024-02-14T05:22:51;100518.98;;;5.78;66.44
57791;BME280;43621;51.798;21.588;2024-02-14T05:26:53;100517.91;;;5.76;66.49
57791;BME280;43621;51.798;21.588;2024-02-14T05:30:55;100522.75;;;5.73;66.57
57791;BME280;43621;51.798;21.588;2024-02-14T05:34:57;100526.72;;;5.70;66.65
57791;BME280;43621;51.798;21.588;2024-02-14T05:38:59;100525.00;;;5.70;66.90
57791;BME280;43621;51.798;21.588;2024-02-14T05:43:00;100529.69;;;5.67;66.94
57791;BME280;43621;51.798;21.588;2024-02-14T05:47:02;100533.27;;;5.65;66.88
57791;BME280;43621;51.798;21.588;2024-02-14T05:51:04;100540.59;;;5.67;66.91
57791;BME280;43621;51.798;21.588;2024-02-14T05:55:06;100546.67;;;5.70;66.87
57791;BME280;43621;51.798;21.588;2024-02-14T05:59:09;100552.95;;;5.69;66.90
57791;BME280;43621;51.798;21.588;2024-02-14T06:03:11;100558.69;;;5.63;66.98
57791;BME280;43621;51.798;21.588;2024-02-14T06:07:13;100560.16;;;5.62;67.14
57791;BME280;43621;51.798;21.588;2024-02-14T06:11:14;100564.13;;;5.59;67.03
57791;BME280;43621;51.798;21.588;2024-02-14T06:15:17;100563.23;;;5.57;67.18
57791;BME280;43621;51.798;21.588;2024-02-14T06:19:18;100564.79;;;5.63;67.48
57791;BME280;43621;51.798;21.588;2024-02-14T06:23:20;100568.10;;;5.68;67.55
57791;BME280;43621;51.798;21.588;2024-02-14T06:27:21;100570.88;;;5.60;67.37
57791;BME280;43621;51.798;21.588;2024-02-14T06:31:23;100568.93;;;5.60;67.60
57791;BME280;43621;51.798;21.588;2024-02-14T06:35:25;100567.02;;;5.71;67.61
57791;BME280;43621;51.798;21.588;2024-02-14T06:39:27;100566.34;;;5.85;67.51
57791;BME280;43621;51.798;21.588;2024-02-14T06:43:28;100575.52;;;5.99;67.50
57791;BME280;43621;51.798;21.588;2024-02-14T06:47:30;100578.30;;;6.13;67.49
57791;BME280;43621;51.798;21.588;2024-02-14T06:51:32;100574.35;;;6.26;67.22
57791;BME280;43621;51.798;21.588;2024-02-14T06:55:33;100570.65;;;6.48;67.17
57791;BME280;43621;51.798;21.588;2024-02-14T06:59:35;100568.45;;;6.74;66.89
57791;BME280;43621;51.798;21.588;2024-02-14T07:03:39;100569.88;;;6.99;66.21
57791;BME280;43621;51.798;21.588;2024-02-14T07:07:42;100572.92;;;7.34;66.00
57791;BME280;43621;51.798;21.588;2024-02-14T07:11:43;100570.34;;;7.78;65.46
57791;BME280;43621;51.798;21.588;2024-02-14T07:15:46;100570.59;;;8.50;65.36
57791;BME280;43621;51.798;21.588;2024-02-14T07:19:48;100567.58;;;9.94;64.76
57791;BME280;43621;51.798;21.588;2024-02-14T07:23:51;100562.48;;;12.40;61.70
57791;BME280;43621;51.798;21.588;2024-02-14T07:27:54;100554.19;;;15.51;60.97
57791;BME280;43621;51.798;21.588;2024-02-14T07:31:57;100555.77;;;18.00;58.26
57791;BME280;43621;51.798;21.588;2024-02-14T07:36:00;100562.80;;;19.62;54.50
57791;BME280;43621;51.798;21.588;2024-02-14T07:40:01;100563.17;;;20.45;51.48
57791;BME280;43621;51.798;21.588;2024-02-14T07:44:03;100561.94;;;20.79;50.82
57791;BME280;43621;51.798;21.588;2024-02-14T07:48:05;100565.27;;;21.57;48.61
57791;BME280;43621;51.798;21.588;2024-02-14T07:52:07;100565.77;;;22.79;45.98
57791;BME280;43621;51.798;21.588;2024-02-14T07:56:08;100568.52;;;24.54;43.13
57791;BME280;43621;51.798;21.588;2024-02-14T08:00:10;100567.77;;;26.26;39.61
57791;BME280;43621;51.798;21.588;2024-02-14T08:04:13;100568.14;;;27.56;39.83
57791;BME280;43621;51.798;21.588;2024-02-14T08:08:15;100569.30;;;29.45;37.85
57791;BME280;43621;51.798;21.588;2024-02-14T08:12:16;100571.27;;;31.42;34.41
57791;BME280;43621;51.798;21.588;2024-02-14T08:16:18;100572.64;;;32.81;31.73
57791;BME280;43621;51.798;21.588;2024-02-14T08:20:19;100572.33;;;33.49;28.98
57791;BME280;43621;51.798;21.588;2024-02-14T08:24:21;100572.21;;;33.04;26.23
57791;BME280;43621;51.798;21.588;2024-02-14T08:28:24;100568.83;;;32.92;26.98
57791;BME280;43621;51.798;21.588;2024-02-14T08:32:25;100571.72;;;33.31;26.74
57791;BME280;43621;51.798;21.588;2024-02-14T08:36:27;100569.48;;;33.85;25.21
57791;BME280;43621;51.798;21.588;2024-02-14T08:40:28;100566.06;;;34.05;24.86
57791;BME280;43621;51.798;21.588;2024-02-14T08:44:30;100566.13;;;33.89;23.18
57791;BME280;43621;51.798;21.588;2024-02-14T08:48:32;100566.13;;;32.92;22.20
57791;BME280;43621;51.798;21.588;2024-02-14T08:52:36;100571.24;;;32.45;22.72
57791;BME280;43621;51.798;21.588;2024-02-14T08:56:39;100562.84;;;32.24;21.93
57791;BME280;43621;51.798;21.588;2024-02-14T09:00:40;100567.48;;;32.31;22.17
57791;BME280;43621;51.798;21.588;2024-02-14T09:04:42;100568.73;;;32.39;22.02
57791;BME280;43621;51.798;21.588;2024-02-14T09:08:43;100570.20;;;32.40;21.40
57791;BME280;43621;51.798;21.588;2024-02-14T09:12:45;100562.42;;;31.74;19.96
57791;BME280;43621;51.798;21.588;2024-02-14T09:16:47;100560.39;;;31.34;21.70
57791;BME280;43621;51.798;21.588;2024-02-14T09:20:48;100562.46;;;31.15;20.67
57791;BME280;43621;51.798;21.588;2024-02-14T09:24:51;100564.80;;;30.87;20.48
57791;BME280;43621;51.798;21.588;2024-02-14T09:28:54;100564.63;;;30.46;20.82
57791;BME280;43621;51.798;21.588;2024-02-14T09:32:57;100563.49;;;29.90;21.78
57791;BME280;43621;51.798;21.588;2024-02-14T09:36:59;100564.73;;;28.54;22.15
57791;BME280;43621;51.798;21.588;2024-02-14T09:45:28;100564.77;;;26.31;23.56
57791;BME280;43621;51.798;21.588;2024-02-14T09:49:29;100564.27;;;26.43;23.71
57791;BME280;43621;51.798;21.588;2024-02-14T09:53:32;100563.57;;;26.62;22.81
57791;BME280;43621;51.798;21.588;2024-02-14T09:57:34;100564.34;;;26.52;22.19
57791;BME280;43621;51.798;21.588;2024-02-14T10:01:37;100567.56;;;25.49;22.80
57791;BME280;43621;51.798;21.588;2024-02-14T10:05:39;100568.50;;;25.02;22.05
57791;BME280;43621;51.798;21.588;2024-02-14T10:09:41;100570.49;;;25.14;23.34
57791;BME280;43621;51.798;21.588;2024-02-14T10:13:46;100565.77;;;25.86;23.85
57791;BME280;43621;51.798;21.588;2024-02-14T10:17:49;100566.15;;;26.29;23.54
57791;BME280;43621;51.798;21.588;2024-02-14T10:22:00;100562.52;;;25.81;23.90
57791;BME280;43621;51.798;21.588;2024-02-14T10:26:04;100562.39;;;26.05;24.79
57791;BME280;43621;51.798;21.588;2024-02-14T10:30:06;100565.29;;;26.14;24.35
57791;BME280;43621;51.798;21.588;2024-02-14T10:34:11;100562.71;;;25.60;24.17
57791;BME280;43621;51.798;21.588;2024-02-14T10:38:13;100557.46;;;25.24;24.44
57791;BME280;43621;51.798;21.588;2024-02-14T10:42:17;100556.49;;;25.26;24.54
57791;BME280;43621;51.798;21.588;2024-02-14T10:46:21;100549.41;;;25.37;23.85
57791;BME280;43621;51.798;21.588;2024-02-14T10:50:24;100548.42;;;24.91;22.81
57791;BME280;43621;51.798;21.588;2024-02-14T10:54:26;100547.70;;;24.65;23.80
57791;BME280;43621;51.798;21.588;2024-02-14T10:58:29;100548.73;;;24.03;24.62
57791;BME280;43621;51.798;21.588;2024-02-14T11:02:32;100545.61;;;23.72;25.37
57791;BME280;43621;51.798;21.588;2024-02-14T11:06:47;100545.81;;;24.39;24.37
57791;BME280;43621;51.798;21.588;2024-02-14T11:10:54;100543.93;;;23.20;23.67
57791;BME280;43621;51.798;21.588;2024-02-14T11:14:57;100543.02;;;21.13;24.85
57791;BME280;43621;51.798;21.588;2024-02-14T11:19:10;100544.39;;;19.61;26.36
57791;BME280;43621;51.798;21.588;2024-02-14T11:23:11;100540.29;;;19.26;27.32
57791;BME280;43621;51.798;21.588;2024-02-14T11:27:14;100538.58;;;18.97;27.58
57791;BME280;43621;51.798;21.588;2024-02-14T11:31:16;100535.52;;;18.87;28.43
57791;BME280;43621;51.798;21.588;2024-02-14T11:35:18;100530.75;;;18.93;28.62
57791;BME280;43621;51.798;21.588;2024-02-14T11:39:21;100528.14;;;18.78;28.01
57791;BME280;43621;51.798;21.588;2024-02-14T11:43:23;100524.71;;;18.57;28.12
57791;BME280;43621;51.798;21.588;2024-02-14T11:47:25;100523.46;;;18.53;28.72
57791;BME280;43621;51.798;21.588;2024-02-14T11:51:31;100519.95;;;18.43;28.40
57791;BME280;43621;51.798;21.588;2024-02-14T11:55:33;100514.25;;;18.39;28.82
57791;BME280;43621;51.798;21.588;2024-02-14T11:59:35;100512.45;;;18.21;28.99
57791;BME280;43621;51.798;21.588;2024-02-14T12:03:37;100511.86;;;17.92;28.83
57791;BME280;43621;51.798;21.588;2024-02-14T12:07:40;100512.88;;;17.74;29.13
57791;BME280;43621;51.798;21.588;2024-02-14T12:11:42;100511.14;;;17.05;29.29
57791;BME280;43621;51.798;21.588;2024-02-14T12:15:46;100511.60;;;16.53;29.76
57791;BME280;43621;51.798;21.588;2024-02-14T12:19:48;100517.59;;;16.52;30.22
57791;BME280;43621;51.798;21.588;2024-02-14T12:23:58;100514.23;;;16.58;29.59
57791;BME280;43621;51.798;21.588;2024-02-14T12:28:00;100509.29;;;16.44;30.07
57791;BME280;43621;51.798;21.588;2024-02-14T12:32:07;100514.82;;;16.00;30.63
57791;BME280;43621;51.798;21.588;2024-02-14T12:36:09;100514.20;;;15.37;30.85
57791;BME280;43621;51.798;21.588;2024-02-14T12:40:12;100515.61;;;14.99;31.82
57791;BME280;43621;51.798;21.588;2024-02-14T12:44:14;100512.96;;;14.87;32.22
57791;BME280;43621;51.798;21.588;2024-02-14T12:48:23;100509.41;;;14.99;32.55
57791;BME280;43621;51.798;21.588;2024-02-14T12:52:25;100510.61;;;15.12;32.42
57791;BME280;43621;51.798;21.588;2024-02-14T12:56:26;100508.27;;;14.92;32.93
57791;BME280;43621;51.798;21.588;2024-02-14T13:00:28;100502.11;;;14.80;33.31
57791;BME280;43621;51.798;21.588;2024-02-14T13:04:30;100507.55;;;14.90;33.31
57791;BME280;43621;51.798;21.588;2024-02-14T13:08:32;100505.84;;;14.86;33.08
57791;BME280;43621;51.798;21.588;2024-02-14T13:12:34;100508.73;;;15.01;33.05
57791;BME280;43621;51.798;21.588;2024-02-14T13:16:35;100503.86;;;14.90;32.82
57791;BME280;43621;51.798;21.588;2024-02-14T13:20:37;100502.48;;;14.95;33.35
57791;BME280;43621;51.798;21.588;2024-02-14T13:24:40;100503.46;;;14.96;33.60
57791;BME280;43621;51.798;21.588;2024-02-14T13:28:41;100503.34;;;14.92;33.55
57791;BME280;43621;51.798;21.588;2024-02-14T13:32:43;100502.31;;;14.81;33.50
57791;BME280;43621;51.798;21.588;2024-02-14T13:36:45;100501.74;;;14.66;33.69
57791;BME280;43621;51.798;21.588;2024-02-14T13:40:47;100508.14;;;14.40;33.86
57791;BME280;43621;51.798;21.588;2024-02-14T13:44:48;100508.70;;;14.04;34.40
57791;BME280;43621;51.798;21.588;2024-02-14T13:48:50;100503.98;;;13.70;34.39
57791;BME280;43621;51.798;21.588;2024-02-14T13:52:52;100506.83;;;13.22;34.47
57791;BME280;43621;51.798;21.588;2024-02-14T13:56:55;100508.77;;;12.78;34.61
57791;BME280;43621;51.798;21.588;2024-02-14T14:00:57;100510.20;;;12.24;35.17
57791;BME280;43621;51.798;21.588;2024-02-14T14:05:00;100511.38;;;11.87;35.72
57791;BME280;43621;51.798;21.588;2024-02-14T14:09:02;100505.50;;;11.64;36.07
57791;BME280;43621;51.798;21.588;2024-02-14T14:13:06;100503.16;;;11.43;36.60
57791;BME280;43621;51.798;21.588;2024-02-14T14:17:08;100506.55;;;11.37;36.80
57791;BME280;43621;51.798;21.588;2024-02-14T14:21:09;100509.34;;;11.08;36.89
57791;BME280;43621;51.798;21.588;2024-02-14T14:25:11;100510.68;;;10.96;37.33
57791;BME280;43621;51.798;21.588;2024-02-14T14:29:13;100511.23;;;10.96;37.48
57791;BME280;43621;51.798;21.588;2024-02-14T14:33:14;100512.64;;;10.92;37.71
57791;BME280;43621;51.798;21.588;2024-02-14T14:37:16;100512.82;;;10.94;38.05
57791;BME280;43621;51.798;21.588;2024-02-14T14:41:17;100516.84;;;11.02;38.24
57791;BME280;43621;51.798;21.588;2024-02-14T14:45:19;100515.58;;;11.03;38.24
57791;BME280;43621;51.798;21.588;2024-02-14T14:49:20;100516.38;;;11.03;38.37
57791;BME280;43621;51.798;21.588;2024-02-14T14:53:22;100519.59;;;11.06;38.40
57791;BME280;43621;51.798;21.588;2024-02-14T14:57:25;100519.02;;;11.07;38.64
57791;BME280;43621;51.798;21.588;2024-02-14T15:01:26;100516.02;;;10.91;38.78
57791;BME280;43621;51.798;21.588;2024-02-14T15:05:29;100515.42;;;10.69;39.21
57791;BME280;43621;51.798;21.588;2024-02-14T15:09:30;100518.46;;;10.49;39.59
57791;BME280;43621;51.798;21.588;2024-02-14T15:13:32;100522.29;;;10.32;40.00
57791;BME280;43621;51.798;21.588;2024-02-14T15:17:34;100517.02;;;10.18;40.47
57791;BME280;43621;51.798;21.588;2024-02-14T15:21:37;100515.86;;;10.00;41.40
57791;BME280;43621;51.798;21.588;2024-02-14T15:25:38;100516.01;;;9.76;42.38
57791;BME280;43621;51.798;21.588;2024-02-14T15:29:40;100516.48;;;9.59;43.51
57791;BME280;43621;51.798;21.588;2024-02-14T15:34:00;100508.83;;;9.35;44.11
57791;BME280;43621;51.798;21.588;2024-02-14T15:38:01;100506.30;;;9.18;44.71
57791;BME280;43621;51.798;21.588;2024-02-14T15:42:04;100510.52;;;8.97;45.23
57791;BME280;43621;51.798;21.588;2024-02-14T15:46:05;100511.50;;;8.77;45.20
57791;BME280;43621;51.798;21.588;2024-02-14T15:50:07;100514.02;;;8.60;45.85
57791;BME280;43621;51.798;21.588;2024-02-14T15:54:09;100520.48;;;8.43;46.34
57791;BME280;43621;51.798;21.588;2024-02-14T15:58:11;100522.19;;;8.27;46.70
57791;BME280;43621;51.798;21.588;2024-02-14T16:02:12;100531.27;;;8.09;46.83
57791;BME280;43621;51.798;21.588;2024-02-14T16:06:14;100538.30;;;7.91;47.86
57791;BME280;43621;51.798;21.588;2024-02-14T16:10:16;100539.92;;;7.73;48.02
57791;BME280;43621;51.798;21.588;2024-02-14T16:14:17;100538.80;;;7.55;48.03
57791;BME280;43621;51.798;21.588;2024-02-14T16:18:20;100536.76;;;7.39;48.28
57791;BME280;43621;51.798;21.588;2024-02-14T16:22:22;100542.38;;;7.31;48.62
57791;BME280;43621;51.798;21.588;2024-02-14T16:26:25;100544.76;;;7.21;49.15
57791;BME280;43621;51.798;21.588;2024-02-14T16:30:26;100545.59;;;7.09;49.52
57791;BME280;43621;51.798;21.588;2024-02-14T16:34:28;100544.59;;;6.99;49.41
57791;BME280;43621;51.798;21.588;2024-02-14T16:38:29;100541.01;;;6.90;49.54
57791;BME280;43621;51.798;21.588;2024-02-14T16:42:31;100541.31;;;6.81;50.22
57791;BME280;43621;51.798;21.588;2024-02-14T16:46:32;100544.58;;;6.70;50.68
57791;BME280;43621;51.798;21.588;2024-02-14T16:50:34;100547.27;;;6.69;50.46
57791;BME280;43621;51.798;21.588;2024-02-14T16:54:36;100557.46;;;6.67;50.81
57791;BME280;43621;51.798;21.588;2024-02-14T16:58:38;100560.56;;;6.65;51.24
57791;BME280;43621;51.798;21.588;2024-02-14T17:02:39;100555.77;;;6.61;50.86
57791;BME280;43621;51.798;21.588;2024-02-14T17:06:41;100553.68;;;6.59;50.63
57791;BME280;43621;51.798;21.588;2024-02-14T17:10:43;100556.13;;;6.61;50.51
57791;BME280;43621;51.798;21.588;2024-02-14T17:14:45;100561.50;;;6.56;51.67
57791;BME280;43621;51.798;21.588;2024-02-14T17:18:46;100563.40;;;6.51;52.01
57791;BME280;43621;51.798;21.588;2024-02-14T17:22:48;100567.03;;;6.45;51.56
57791;BME280;43621;51.798;21.588;2024-02-14T17:26:49;100563.69;;;6.40;51.56
57791;BME280;43621;51.798;21.588;2024-02-14T17:30:51;100566.87;;;6.34;51.82
57791;BME280;43621;51.798;21.588;2024-02-14T17:34:53;100568.95;;;6.29;51.73
57791;BME280;43621;51.798;21.588;2024-02-14T17:38:55;100573.42;;;6.27;51.91
57791;BME280;43621;51.798;21.588;2024-02-14T17:42:59;100567.91;;;6.23;51.76
57791;BME280;43621;51.798;21.588;2024-02-14T17:47:01;100567.77;;;6.26;51.60
57791;BME280;43621;51.798;21.588;2024-02-14T17:51:03;100569.13;;;6.32;51.47
57791;BME280;43621;51.798;21.588;2024-02-14T17:55:05;100572.65;;;6.39;51.30
57791;BME280;43621;51.798;21.588;2024-02-14T17:59:06;100575.79;;;6.44;51.18
57791;BME280;43621;51.798;21.588;2024-02-14T18:03:08;100575.40;;;6.50;51.03
57791;BME280;43621;51.798;21.588;2024-02-14T18:07:10;100574.45;;;6.54;50.88
57791;BME280;43621;51.798;21.588;2024-02-14T18:11:11;100574.70;;;6.56;50.82
57791;BME280;43621;51.798;21.588;2024-02-14T18:15:14;100574.78;;;6.59;50.70
57791;BME280;43621;51.798;21.588;2024-02-14T18:19:16;100573.23;;;6.59;50.62
57791;BME280;43621;51.798;21.588;2024-02-14T18:23:17;100575.25;;;6.55;50.60
57791;BME280;43621;51.798;21.588;2024-02-14T18:27:19;100577.67;;;6.55;50.65
57791;BME280;43621;51.798;21.588;2024-02-14T18:31:23;100578.30;;;6.53;51.10
57791;BME280;43621;51.798;21.588;2024-02-14T18:35:25;100581.64;;;6.53;51.03
57791;BME280;43621;51.798;21.588;2024-02-14T18:39:26;100579.85;;;6.54;50.90
57791;BME280;43621;51.798;21.588;2024-02-14T18:43:28;100576.21;;;6.56;50.84
57791;BME280;43621;51.798;21.588;2024-02-14T18:47:30;100574.09;;;6.55;50.87
57791;BME280;43621;51.798;21.588;2024-02-14T18:51:31;100576.70;;;6.54;50.68
57791;BME280;43621;51.798;21.588;2024-02-14T18:55:34;100575.90;;;6.56;50.67
57791;BME280;43621;51.798;21.588;2024-02-14T18:59:36;100574.55;;;6.58;50.74
57791;BME280;43621;51.798;21.588;2024-02-14T19:03:38;100576.14;;;6.60;50.72
57791;BME280;43621;51.798;21.588;2024-02-14T19:07:39;100583.73;;;6.63;50.77
57791;BME280;43621;51.798;21.588;2024-02-14T19:11:41;100588.36;;;6.64;50.89
57791;BME280;43621;51.798;21.588;2024-02-14T19:15:42;100584.70;;;6.67;50.77
57791;BME280;43621;51.798;21.588;2024-02-14T19:19:44;100587.51;;;6.69;50.78
57791;BME280;43621;51.798;21.588;2024-02-14T19:23:45;100592.73;;;6.69;50.92
57791;BME280;43621;51.798;21.588;2024-02-14T19:27:47;100588.20;;;6.72;50.89
57791;BME280;43621;51.798;21.588;2024-02-14T19:31:48;100593.91;;;6.72;50.90
57791;BME280;43621;51.798;21.588;2024-02-14T19:35:50;100596.32;;;6.72;50.81
57791;BME280;43621;51.798;21.588;2024-02-14T19:39:52;100596.38;;;6.71;51.02
57791;BME280;43621;51.798;21.588;2024-02-14T19:43:54;100598.33;;;6.68;51.18
57791;BME280;43621;51.798;21.588;2024-02-14T19:47:56;100596.85;;;6.64;51.21
57791;BME280;43621;51.798;21.588;2024-02-14T19:51:57;100599.59;;;6.65;51.39
57791;BME280;43621;51.798;21.588;2024-02-14T19:56:05;100601.20;;;6.64;51.50
57791;BME280;43621;51.798;21.588;2024-02-14T20:00:07;100600.38;;;6.63;51.40
57791;BME280;43621;51.798;21.588;2024-02-14T20:04:11;100599.11;;;6.64;51.35
57791;BME280;43621;51.798;21.588;2024-02-14T20:08:13;100592.41;;;6.63;51.33
57791;BME280;43621;51.798;21.588;2024-02-14T20:12:15;100591.10;;;6.57;51.28
57791;BME280;43621;51.798;21.588;2024-02-14T20:16:16;100584.37;;;6.51;51.53
57791;BME280;43621;51.798;21.588;2024-02-14T20:20:18;100587.66;;;6.45;51.66
57791;BME280;43621;51.798;21.588;2024-02-14T20:24:21;100589.18;;;6.40;51.84
57791;BME280;43621;51.798;21.588;2024-02-14T20:28:22;100589.04;;;6.35;51.82
57791;BME280;43621;51.798;21.588;2024-02-14T20:32:26;100589.02;;;6.29;52.03
57791;BME280;43621;51.798;21.588;2024-02-14T20:36:28;100594.48;;;6.26;52.09
57791;BME280;43621;51.798;21.588;2024-02-14T20:40:29;100590.10;;;6.24;52.24
57791;BME280;43621;51.798;21.588;2024-02-14T20:44:34;100589.94;;;6.18;52.33
57791;BME280;43621;51.798;21.588;2024-02-14T20:48:35;100589.42;;;6.18;52.41
57791;BME280;43621;51.798;21.588;2024-02-14T20:52:37;100588.79;;;6.20;52.29
57791;BME280;43621;51.798;21.588;2024-02-14T20:56:39;100584.66;;;6.25;52.43
57791;BME280;43621;51.798;21.588;2024-02-14T21:00:41;100583.31;;;6.29;52.31
57791;BME280;43621;51.798;21.588;2024-02-14T21:04:44;100582.58;;;6.30;52.33